sensor_id;sensor_type;location;lat;lon;timestamp;temperature;humidity
47825;DHT22;33589;48.242;14.676;2023-10-08T00:01:50;13.20;99.90
47825;DHT22;33589;48.242;14.676;2023-10-08T00:04:16;13.50;99.90
47825;DHT22;33589;48.242;14.676;2023-10-08T00:06:45;13.30;99.90
47825;DHT22;33589;48.242;14.676;2023-10-08T00:09:18;13.20;99.90
47825;DHT22;33589;48.242;14.676;2023-10-08T00:11:46;13.40;99.90
47825;DHT22;33589;48.242;14.676;2023-10-08T00:14:19;13.40;99.90
47825;DHT22;33589;48.242;14.676;2023-10-08T00:16:47;13.40;99.90
47825;DHT22;33589;48.242;14.676;2023-10-08T00:19:16;13.40;99.90
47825;DHT22;33589;48.242;14.676;2023-10-08T00:21:43;13.60;99.90
47825;DHT22;33589;48.242;14.676;2023-10-08T00:24:10;13.60;99.90
47825;DHT22;33589;48.242;14.676;2023-10-08T00:26:38;13.80;99.90
47825;DHT22;33589;48.242;14.676;2023-10-08T00:29:08;13.60;99.90
47825;DHT22;33589;48.242;14.676;2023-10-08T00:31:50;13.60;99.90
47825;DHT22;33589;48.242;14.676;2023-10-08T00:34:19;13.60;99.90
47825;DHT22;33589;48.242;14.676;2023-10-08T00:36:46;13.40;99.90
47825;DHT22;33589;48.242;14.676;2023-10-08T00:39:13;13.80;99.90
47825;DHT22;33589;48.242;14.676;2023-10-08T00:41:41;13.90;99.90
47825;DHT22;33589;48.242;14.676;2023-10-08T00:44:09;13.50;99.90
47825;DHT22;33589;48.242;14.676;2023-10-08T00:46:39;13.50;99.90
47825;DHT22;33589;48.242;14.676;2023-10-08T00:49:14;14.10;99.90
47825;DHT22;33589;48.242;14.676;2023-10-08T00:52:06;13.90;99.90
47825;DHT22;33589;48.242;14.676;2023-10-08T00:54:34;14.10;99.90
47825;DHT22;33589;48.242;14.676;2023-10-08T00:57:13;14.00;99.90
47825;DHT22;33589;48.242;14.676;2023-10-08T00:59:43;13.90;99.90
47825;DHT22;33589;48.242;14.676;2023-10-08T01:02:10;13.70;99.90
47825;DHT22;33589;48.242;14.676;2023-10-08T01:04:41;13.60;99.90
47825;DHT22;33589;48.242;14.676;2023-10-08T01:07:10;13.80;99.90
47825;DHT22;33589;48.242;14.676;2023-10-08T01:09:45;13.70;99.90
47825;DHT22;33589;48.242;14.676;2023-10-08T01:12:21;13.40;99.90
47825;DHT22;33589;48.242;14.676;2023-10-08T01:14:51;13.50;99.90
47825;DHT22;33589;48.242;14.676;2023-10-08T01:17:20;13.20;99.90
47825;DHT22;33589;48.242;14.676;2023-10-08T01:19:49;13.40;99.90
47825;DHT22;33589;48.242;14.676;2023-10-08T01:22:20;13.20;99.90
47825;DHT22;33589;48.242;14.676;2023-10-08T01:24:51;13.20;99.90
47825;DHT22;33589;48.242;14.676;2023-10-08T01:27:19;13.60;99.90
47825;DHT22;33589;48.242;14.676;2023-10-08T01:29:50;13.20;99.90
47825;DHT22;33589;48.242;14.676;2023-10-08T01:32:17;13.30;99.90
47825;DHT22;33589;48.242;14.676;2023-10-08T01:34:44;13.00;99.90
47825;DHT22;33589;48.242;14.676;2023-10-08T01:37:19;13.50;99.90
47825;DHT22;33589;48.242;14.676;2023-10-08T01:39:47;12.80;99.90
47825;DHT22;33589;48.242;14.676;2023-10-08T01:42:16;12.80;99.90
47825;DHT22;33589;48.242;14.676;2023-10-08T01:44:44;13.20;99.90
47825;DHT22;33589;48.242;14.676;2023-10-08T01:47:14;13.20;99.90
47825;DHT22;33589;48.242;14.676;2023-10-08T01:49:41;13.20;99.90
47825;DHT22;33589;48.242;14.676;2023-10-08T01:52:09;13.20;99.90
47825;DHT22;33589;48.242;14.676;2023-10-08T01:54:43;13.30;99.90
47825;DHT22;33589;48.242;14.676;2023-10-08T01:57:10;13.40;99.90
47825;DHT22;33589;48.242;14.676;2023-10-08T01:59:36;13.40;99.90
47825;DHT22;33589;48.242;14.676;2023-10-08T02:02:04;13.30;99.90
47825;DHT22;33589;48.242;14.676;2023-10-08T02:04:34;13.50;99.90
47825;DHT22;33589;48.242;14.676;2023-10-08T02:07:03;13.30;99.90
47825;DHT22;33589;48.242;14.676;2023-10-08T02:09:30;13.10;99.90
47825;DHT22;33589;48.242;14.676;2023-10-08T02:11:58;13.50;99.90
47825;DHT22;33589;48.242;14.676;2023-10-08T02:14:24;13.00;99.90
47825;DHT22;33589;48.242;14.676;2023-10-08T02:16:50;13.00;99.90
47825;DHT22;33589;48.242;14.676;2023-10-08T02:19:22;13.20;99.90
47825;DHT22;33589;48.242;14.676;2023-10-08T02:21:53;12.80;99.90
47825;DHT22;33589;48.242;14.676;2023-10-08T02:24:23;12.90;99.90
47825;DHT22;33589;48.242;14.676;2023-10-08T02:26:53;12.80;99.90
47825;DHT22;33589;48.242;14.676;2023-10-08T02:29:21;13.40;99.90
47825;DHT22;33589;48.242;14.676;2023-10-08T02:31:47;12.60;99.90
47825;DHT22;33589;48.242;14.676;2023-10-08T02:34:13;12.80;99.90
47825;DHT22;33589;48.242;14.676;2023-10-08T02:36:40;12.80;99.90
47825;DHT22;33589;48.242;14.676;2023-10-08T02:39:07;12.80;99.90
47825;DHT22;33589;48.242;14.676;2023-10-08T02:41:52;12.70;99.90
47825;DHT22;33589;48.242;14.676;2023-10-08T02:44:18;12.70;99.90
47825;DHT22;33589;48.242;14.676;2023-10-08T02:46:48;12.60;99.90
47825;DHT22;33589;48.242;14.676;2023-10-08T02:49:19;12.80;99.90
47825;DHT22;33589;48.242;14.676;2023-10-08T02:51:47;12.50;99.90
47825;DHT22;33589;48.242;14.676;2023-10-08T02:54:13;12.50;99.90
47825;DHT22;33589;48.242;14.676;2023-10-08T02:56:48;12.40;99.90
47825;DHT22;33589;48.242;14.676;2023-10-08T02:59:16;12.40;99.90
47825;DHT22;33589;48.242;14.676;2023-10-08T03:01:42;12.20;99.90
47825;DHT22;33589;48.242;14.676;2023-10-08T03:04:11;12.40;99.90
47825;DHT22;33589;48.242;14.676;2023-10-08T03:06:46;12.30;99.90
47825;DHT22;33589;48.242;14.676;2023-10-08T03:09:17;12.50;99.90
47825;DHT22;33589;48.242;14.676;2023-10-08T03:11:48;12.50;99.90
47825;DHT22;33589;48.242;14.676;2023-10-08T03:14:16;12.60;99.90
47825;DHT22;33589;48.242;14.676;2023-10-08T03:16:51;12.50;99.90
47825;DHT22;33589;48.242;14.676;2023-10-08T03:19:19;12.10;99.90
47825;DHT22;33589;48.242;14.676;2023-10-08T03:21:46;12.00;99.90
47825;DHT22;33589;48.242;14.676;2023-10-08T03:24:21;12.40;99.90
47825;DHT22;33589;48.242;14.676;2023-10-08T03:27:00;12.30;99.90
47825;DHT22;33589;48.242;14.676;2023-10-08T03:29:35;12.40;99.90
47825;DHT22;33589;48.242;14.676;2023-10-08T03:32:11;12.30;99.90
47825;DHT22;33589;48.242;14.676;2023-10-08T03:34:49;12.30;99.90
47825;DHT22;33589;48.242;14.676;2023-10-08T03:37:17;11.90;99.90
47825;DHT22;33589;48.242;14.676;2023-10-08T03:39:50;12.20;99.90
47825;DHT22;33589;48.242;14.676;2023-10-08T03:42:47;12.10;99.90
47825;DHT22;33589;48.242;14.676;2023-10-08T03:45:14;12.30;99.90
47825;DHT22;33589;48.242;14.676;2023-10-08T03:47:48;12.70;99.90
47825;DHT22;33589;48.242;14.676;2023-10-08T03:50:29;12.20;99.90
47825;DHT22;33589;48.242;14.676;2023-10-08T03:53:09;12.10;99.90
47825;DHT22;33589;48.242;14.676;2023-10-08T03:55:40;12.50;99.90
47825;DHT22;33589;48.242;14.676;2023-10-08T03:58:09;12.40;99.90
47825;DHT22;33589;48.242;14.676;2023-10-08T04:00:55;12.10;99.90
47825;DHT22;33589;48.242;14.676;2023-10-08T04:03:43;12.30;99.90
47825;DHT22;33589;48.242;14.676;2023-10-08T04:06:21;12.30;99.90
47825;DHT22;33589;48.242;14.676;2023-10-08T04:09:16;12.30;99.90
47825;DHT22;33589;48.242;14.676;2023-10-08T04:11:44;12.00;99.90
47825;DHT22;33589;48.242;14.676;2023-10-08T04:14:28;11.70;99.90
47825;DHT22;33589;48.242;14.676;2023-10-08T04:16:55;11.90;99.90
47825;DHT22;33589;48.242;14.676;2023-10-08T04:19:22;11.90;99.90
47825;DHT22;33589;48.242;14.676;2023-10-08T04:21:54;12.00;99.90
47825;DHT22;33589;48.242;14.676;2023-10-08T04:24:23;12.00;99.90
47825;DHT22;33589;48.242;14.676;2023-10-08T04:27:00;12.40;99.90
47825;DHT22;33589;48.242;14.676;2023-10-08T04:29:31;12.10;99.90
47825;DHT22;33589;48.242;14.676;2023-10-08T04:32:02;12.10;99.90
47825;DHT22;33589;48.242;14.676;2023-10-08T04:34:33;12.00;99.90
47825;DHT22;33589;48.242;14.676;2023-10-08T04:36:59;12.00;99.90
47825;DHT22;33589;48.242;14.676;2023-10-08T04:39:29;12.00;99.90
47825;DHT22;33589;48.242;14.676;2023-10-08T04:42:02;11.70;99.90
47825;DHT22;33589;48.242;14.676;2023-10-08T04:44:32;11.80;99.90
47825;DHT22;33589;48.242;14.676;2023-10-08T04:46:59;11.90;99.90
47825;DHT22;33589;48.242;14.676;2023-10-08T04:49:31;12.20;99.90
47825;DHT22;33589;48.242;14.676;2023-10-08T04:52:06;11.70;99.90
47825;DHT22;33589;48.242;14.676;2023-10-08T04:54:40;11.40;99.90
47825;DHT22;33589;48.242;14.676;2023-10-08T04:57:07;11.40;99.90
47825;DHT22;33589;48.242;14.676;2023-10-08T04:59:41;11.40;99.90
47825;DHT22;33589;48.242;14.676;2023-10-08T05:02:07;11.60;99.90
47825;DHT22;33589;48.242;14.676;2023-10-08T05:04:49;11.60;99.90
47825;DHT22;33589;48.242;14.676;2023-10-08T05:07:21;11.20;99.90
47825;DHT22;33589;48.242;14.676;2023-10-08T05:09:52;11.20;99.90
47825;DHT22;33589;48.242;14.676;2023-10-08T05:12:35;11.40;99.90
47825;DHT22;33589;48.242;14.676;2023-10-08T05:15:11;11.10;99.90
47825;DHT22;33589;48.242;14.676;2023-10-08T05:17:44;11.30;99.90
47825;DHT22;33589;48.242;14.676;2023-10-08T05:22:45;11.20;99.90
47825;DHT22;33589;48.242;14.676;2023-10-08T05:25:21;11.40;99.90
47825;DHT22;33589;48.242;14.676;2023-10-08T05:27:46;11.40;99.90
47825;DHT22;33589;48.242;14.676;2023-10-08T05:30:22;11.50;99.90
47825;DHT22;33589;48.242;14.676;2023-10-08T05:33:07;11.80;99.90
47825;DHT22;33589;48.242;14.676;2023-10-08T05:35:43;12.00;99.90
47825;DHT22;33589;48.242;14.676;2023-10-08T05:38:11;11.60;99.90
47825;DHT22;33589;48.242;14.676;2023-10-08T05:40:56;11.60;99.90
47825;DHT22;33589;48.242;14.676;2023-10-08T05:43:22;11.50;99.90
47825;DHT22;33589;48.242;14.676;2023-10-08T05:46:04;11.50;99.90
47825;DHT22;33589;48.242;14.676;2023-10-08T05:49:05;11.40;99.90
47825;DHT22;33589;48.242;14.676;2023-10-08T05:51:35;11.40;99.90
47825;DHT22;33589;48.242;14.676;2023-10-08T05:54:31;11.60;99.90
47825;DHT22;33589;48.242;14.676;2023-10-08T05:59:46;11.10;99.90
47825;DHT22;33589;48.242;14.676;2023-10-08T06:02:28;11.30;99.90
47825;DHT22;33589;48.242;14.676;2023-10-08T06:05:03;11.20;99.90
47825;DHT22;33589;48.242;14.676;2023-10-08T06:07:48;11.40;99.90
47825;DHT22;33589;48.242;14.676;2023-10-08T06:10:18;11.30;99.90
47825;DHT22;33589;48.242;14.676;2023-10-08T06:13:03;11.40;99.90
47825;DHT22;33589;48.242;14.676;2023-10-08T06:15:53;11.60;99.90
47825;DHT22;33589;48.242;14.676;2023-10-08T06:18:28;11.80;99.90
47825;DHT22;33589;48.242;14.676;2023-10-08T06:20:58;11.90;99.90
47825;DHT22;33589;48.242;14.676;2023-10-08T06:23:25;12.00;99.90
47825;DHT22;33589;48.242;14.676;2023-10-08T06:25:54;12.40;99.90
47825;DHT22;33589;48.242;14.676;2023-10-08T06:28:23;12.50;99.90
47825;DHT22;33589;48.242;14.676;2023-10-08T06:30:54;13.00;99.90
47825;DHT22;33589;48.242;14.676;2023-10-08T06:33:22;13.40;99.90
47825;DHT22;33589;48.242;14.676;2023-10-08T06:35:50;13.20;99.90
47825;DHT22;33589;48.242;14.676;2023-10-08T06:38:32;13.40;99.90
47825;DHT22;33589;48.242;14.676;2023-10-08T06:41:02;13.90;99.90
47825;DHT22;33589;48.242;14.676;2023-10-08T06:43:36;14.80;99.90
47825;DHT22;33589;48.242;14.676;2023-10-08T06:46:05;15.50;99.90
47825;DHT22;33589;48.242;14.676;2023-10-08T06:48:34;16.40;97.10
47825;DHT22;33589;48.242;14.676;2023-10-08T06:51:00;17.00;95.00
47825;DHT22;33589;48.242;14.676;2023-10-08T06:53:37;17.50;93.70
47825;DHT22;33589;48.242;14.676;2023-10-08T06:56:04;17.70;93.70
47825;DHT22;33589;48.242;14.676;2023-10-08T06:58:30;18.10;92.90
47825;DHT22;33589;48.242;14.676;2023-10-08T07:01:00;18.50;91.90
47825;DHT22;33589;48.242;14.676;2023-10-08T07:03:31;17.70;91.50
47825;DHT22;33589;48.242;14.676;2023-10-08T07:05:57;17.40;91.70
47825;DHT22;33589;48.242;14.676;2023-10-08T07:08:24;17.00;90.80
47825;DHT22;33589;48.242;14.676;2023-10-08T07:10:51;17.50;92.10
47825;DHT22;33589;48.242;14.676;2023-10-08T07:13:18;17.80;91.30
47825;DHT22;33589;48.242;14.676;2023-10-08T07:15:51;17.90;91.20
47825;DHT22;33589;48.242;14.676;2023-10-08T07:18:18;18.40;91.80
47825;DHT22;33589;48.242;14.676;2023-10-08T07:20:54;19.90;84.90
47825;DHT22;33589;48.242;14.676;2023-10-08T07:23:22;19.90;78.10
47825;DHT22;33589;48.242;14.676;2023-10-08T07:25:56;20.10;74.30
47825;DHT22;33589;48.242;14.676;2023-10-08T07:28:25;21.20;72.80
47825;DHT22;33589;48.242;14.676;2023-10-08T07:30:52;21.50;74.50
47825;DHT22;33589;48.242;14.676;2023-10-08T07:33:18;20.70;81.70
47825;DHT22;33589;48.242;14.676;2023-10-08T07:40:51;23.90;82.80
47825;DHT22;33589;48.242;14.676;2023-10-08T08:28:34;31.70;53.70
47825;DHT22;33589;48.242;14.676;2023-10-08T08:31:03;30.80;51.40
47825;DHT22;33589;48.242;14.676;2023-10-08T08:33:43;31.00;67.50
47825;DHT22;33589;48.242;14.676;2023-10-08T08:38:48;30.00;69.10
47825;DHT22;33589;48.242;14.676;2023-10-08T08:43:51;31.30;55.90
47825;DHT22;33589;48.242;14.676;2023-10-08T08:46:33;31.00;61.20
47825;DHT22;33589;48.242;14.676;2023-10-08T08:49:07;31.10;43.70
47825;DHT22;33589;48.242;14.676;2023-10-08T08:51:34;31.10;44.30
47825;DHT22;33589;48.242;14.676;2023-10-08T08:54:04;31.00;44.10
47825;DHT22;33589;48.242;14.676;2023-10-08T08:56:36;32.00;43.50
47825;DHT22;33589;48.242;14.676;2023-10-08T09:01:31;32.60;41.50
47825;DHT22;33589;48.242;14.676;2023-10-08T09:06:27;31.20;43.90
47825;DHT22;33589;48.242;14.676;2023-10-08T09:08:53;32.20;42.40
47825;DHT22;33589;48.242;14.676;2023-10-08T09:11:21;32.10;42.80
47825;DHT22;33589;48.242;14.676;2023-10-08T09:13:47;31.40;42.60
47825;DHT22;33589;48.242;14.676;2023-10-08T09:16:14;30.70;46.90
47825;DHT22;33589;48.242;14.676;2023-10-08T09:18:42;31.30;42.20
47825;DHT22;33589;48.242;14.676;2023-10-08T09:21:15;31.20;41.90
47825;DHT22;33589;48.242;14.676;2023-10-08T09:23:42;30.10;45.60
47825;DHT22;33589;48.242;14.676;2023-10-08T09:26:13;30.30;44.10
47825;DHT22;33589;48.242;14.676;2023-10-08T09:28:48;30.60;41.50
47825;DHT22;33589;48.242;14.676;2023-10-08T09:31:15;29.70;43.30
47825;DHT22;33589;48.242;14.676;2023-10-08T09:33:43;30.30;42.00
47825;DHT22;33589;48.242;14.676;2023-10-08T09:38:46;29.70;71.10
47825;DHT22;33589;48.242;14.676;2023-10-08T09:43:41;31.50;38.70
47825;DHT22;33589;48.242;14.676;2023-10-08T09:46:19;32.30;39.10
47825;DHT22;33589;48.242;14.676;2023-10-08T09:48:50;33.30;37.70
47825;DHT22;33589;48.242;14.676;2023-10-08T09:51:19;33.80;36.30
47825;DHT22;33589;48.242;14.676;2023-10-08T09:54:10;33.90;34.10
47825;DHT22;33589;48.242;14.676;2023-10-08T09:56:40;30.70;36.40
47825;DHT22;33589;48.242;14.676;2023-10-08T09:59:06;32.60;37.30
47825;DHT22;33589;48.242;14.676;2023-10-08T10:01:39;33.50;35.80
47825;DHT22;33589;48.242;14.676;2023-10-08T10:04:08;33.50;36.40
47825;DHT22;33589;48.242;14.676;2023-10-08T10:06:35;32.70;36.90
47825;DHT22;33589;48.242;14.676;2023-10-08T10:09:02;32.50;37.30
47825;DHT22;33589;48.242;14.676;2023-10-08T10:11:31;31.90;37.80
47825;DHT22;33589;48.242;14.676;2023-10-08T10:13:58;31.30;38.80
47825;DHT22;33589;48.242;14.676;2023-10-08T10:16:27;32.10;36.80
47825;DHT22;33589;48.242;14.676;2023-10-08T10:18:56;30.40;38.40
47825;DHT22;33589;48.242;14.676;2023-10-08T10:21:30;30.20;66.30
47825;DHT22;33589;48.242;14.676;2023-10-08T10:23:56;31.50;38.20
47825;DHT22;33589;48.242;14.676;2023-10-08T10:26:30;31.60;37.90
47825;DHT22;33589;48.242;14.676;2023-10-08T10:31:53;33.50;35.20
47825;DHT22;33589;48.242;14.676;2023-10-08T10:34:23;33.60;35.40
47825;DHT22;33589;48.242;14.676;2023-10-08T10:36:56;31.60;36.40
47825;DHT22;33589;48.242;14.676;2023-10-08T10:42:00;31.40;37.70
47825;DHT22;33589;48.242;14.676;2023-10-08T10:44:32;32.20;36.30
47825;DHT22;33589;48.242;14.676;2023-10-08T10:46:59;33.40;36.30
47825;DHT22;33589;48.242;14.676;2023-10-08T10:49:48;34.00;35.50
47825;DHT22;33589;48.242;14.676;2023-10-08T10:52:17;32.30;36.70
47825;DHT22;33589;48.242;14.676;2023-10-08T10:55:10;33.10;36.30
47825;DHT22;33589;48.242;14.676;2023-10-08T10:57:43;33.80;35.40
47825;DHT22;33589;48.242;14.676;2023-10-08T11:00:10;33.10;36.50
47825;DHT22;33589;48.242;14.676;2023-10-08T11:02:56;34.10;35.60
47825;DHT22;33589;48.242;14.676;2023-10-08T11:07:55;34.20;33.60
47825;DHT22;33589;48.242;14.676;2023-10-08T11:10:34;34.60;34.40
47825;DHT22;33589;48.242;14.676;2023-10-08T11:13:00;33.50;36.80
47825;DHT22;33589;48.242;14.676;2023-10-08T11:15:29;33.80;37.20
47825;DHT22;33589;48.242;14.676;2023-10-08T11:18:13;33.10;37.60
47825;DHT22;33589;48.242;14.676;2023-10-08T11:20:41;33.60;35.90
47825;DHT22;33589;48.242;14.676;2023-10-08T11:23:34;33.60;37.50
47825;DHT22;33589;48.242;14.676;2023-10-08T11:26:05;33.60;38.70
47825;DHT22;33589;48.242;14.676;2023-10-08T11:28:32;34.00;37.20
47825;DHT22;33589;48.242;14.676;2023-10-08T11:31:02;33.70;37.40
47825;DHT22;33589;48.242;14.676;2023-10-08T11:33:43;31.00;42.10
47825;DHT22;33589;48.242;14.676;2023-10-08T11:36:20;32.10;40.40
47825;DHT22;33589;48.242;14.676;2023-10-08T11:38:56;32.50;39.10
47825;DHT22;33589;48.242;14.676;2023-10-08T11:41:32;32.70;39.40
47825;DHT22;33589;48.242;14.676;2023-10-08T11:44:09;31.80;40.40
47825;DHT22;33589;48.242;14.676;2023-10-08T11:46:38;32.30;38.90
47825;DHT22;33589;48.242;14.676;2023-10-08T11:49:04;31.10;39.90
47825;DHT22;33589;48.242;14.676;2023-10-08T11:51:32;33.20;38.10
47825;DHT22;33589;48.242;14.676;2023-10-08T11:54:00;33.20;36.70
47825;DHT22;33589;48.242;14.676;2023-10-08T11:56:26;34.30;37.40
47825;DHT22;33589;48.242;14.676;2023-10-08T11:58:53;34.00;36.80
47825;DHT22;33589;48.242;14.676;2023-10-08T12:01:22;33.20;38.80
47825;DHT22;33589;48.242;14.676;2023-10-08T12:03:50;35.20;38.00
47825;DHT22;33589;48.242;14.676;2023-10-08T12:06:16;35.80;36.20
47825;DHT22;33589;48.242;14.676;2023-10-08T12:08:47;36.20;34.50
47825;DHT22;33589;48.242;14.676;2023-10-08T12:11:15;36.40;34.30
47825;DHT22;33589;48.242;14.676;2023-10-08T12:16:15;34.70;36.70
47825;DHT22;33589;48.242;14.676;2023-10-08T12:18:47;35.90;36.20
47825;DHT22;33589;48.242;14.676;2023-10-08T12:21:27;36.70;34.50
47825;DHT22;33589;48.242;14.676;2023-10-08T12:26:30;32.30;39.10
47825;DHT22;33589;48.242;14.676;2023-10-08T12:28:57;30.80;67.20
47825;DHT22;33589;48.242;14.676;2023-10-08T12:31:23;31.00;66.10
47825;DHT22;33589;48.242;14.676;2023-10-08T12:33:50;32.10;63.80
47825;DHT22;33589;48.242;14.676;2023-10-08T12:36:20;32.40;65.10
47825;DHT22;33589;48.242;14.676;2023-10-08T12:38:49;30.50;67.70
47825;DHT22;33589;48.242;14.676;2023-10-08T12:41:14;30.20;68.20
47825;DHT22;33589;48.242;14.676;2023-10-08T12:43:45;30.30;67.20
47825;DHT22;33589;48.242;14.676;2023-10-08T12:46:14;29.30;70.10
47825;DHT22;33589;48.242;14.676;2023-10-08T12:59:04;30.30;55.60
47825;DHT22;33589;48.242;14.676;2023-10-08T13:01:33;29.90;52.60
47825;DHT22;33589;48.242;14.676;2023-10-08T13:04:01;29.60;48.40
47825;DHT22;33589;48.242;14.676;2023-10-08T13:06:33;29.50;49.10
47825;DHT22;33589;48.242;14.676;2023-10-08T13:11:27;27.50;82.20
47825;DHT22;33589;48.242;14.676;2023-10-08T13:13:57;27.90;58.00
47825;DHT22;33589;48.242;14.676;2023-10-08T13:16:27;28.60;51.30
47825;DHT22;33589;48.242;14.676;2023-10-08T13:18:58;29.50;47.80
47825;DHT22;33589;48.242;14.676;2023-10-08T13:21:29;29.30;60.80
47825;DHT22;33589;48.242;14.676;2023-10-08T13:23:55;29.30;53.50
47825;DHT22;33589;48.242;14.676;2023-10-08T13:33:51;27.30;85.80
47825;DHT22;33589;48.242;14.676;2023-10-08T13:38:44;26.90;46.60
47825;DHT22;33589;48.242;14.676;2023-10-08T13:41:13;26.90;48.20
47825;DHT22;33589;48.242;14.676;2023-10-08T13:43:47;27.00;48.10
47825;DHT22;33589;48.242;14.676;2023-10-08T13:46:18;26.60;49.80
47825;DHT22;33589;48.242;14.676;2023-10-08T13:48:46;26.60;48.60
47825;DHT22;33589;48.242;14.676;2023-10-08T13:51:18;25.90;49.80
47825;DHT22;33589;48.242;14.676;2023-10-08T13:53:53;25.20;50.30
47825;DHT22;33589;48.242;14.676;2023-10-08T13:56:21;25.40;50.20
47825;DHT22;33589;48.242;14.676;2023-10-08T13:58:52;25.50;49.80
47825;DHT22;33589;48.242;14.676;2023-10-08T14:01:28;25.90;49.20
47825;DHT22;33589;48.242;14.676;2023-10-08T14:03:54;25.90;49.40
47825;DHT22;33589;48.242;14.676;2023-10-08T14:06:29;25.90;49.10
47825;DHT22;33589;48.242;14.676;2023-10-08T14:08:55;25.30;49.70
47825;DHT22;33589;48.242;14.676;2023-10-08T14:11:22;25.40;50.20
47825;DHT22;33589;48.242;14.676;2023-10-08T14:13:58;25.20;49.70
47825;DHT22;33589;48.242;14.676;2023-10-08T14:16:34;25.40;51.30
47825;DHT22;33589;48.242;14.676;2023-10-08T14:19:00;25.40;51.90
47825;DHT22;33589;48.242;14.676;2023-10-08T14:21:30;25.40;51.10
47825;DHT22;33589;48.242;14.676;2023-10-08T14:23:58;25.60;50.10
47825;DHT22;33589;48.242;14.676;2023-10-08T14:26:31;25.50;49.60
47825;DHT22;33589;48.242;14.676;2023-10-08T14:29:04;25.50;50.60
47825;DHT22;33589;48.242;14.676;2023-10-08T14:31:42;25.40;51.10
47825;DHT22;33589;48.242;14.676;2023-10-08T14:34:14;25.20;50.70
47825;DHT22;33589;48.242;14.676;2023-10-08T14:36:44;25.30;49.90
47825;DHT22;33589;48.242;14.676;2023-10-08T14:39:28;25.20;49.40
47825;DHT22;33589;48.242;14.676;2023-10-08T14:42:13;25.00;50.00
47825;DHT22;33589;48.242;14.676;2023-10-08T14:44:57;24.80;51.20
47825;DHT22;33589;48.242;14.676;2023-10-08T14:47:22;24.40;52.40
47825;DHT22;33589;48.242;14.676;2023-10-08T14:49:48;24.30;53.20
47825;DHT22;33589;48.242;14.676;2023-10-08T14:52:14;24.50;53.10
47825;DHT22;33589;48.242;14.676;2023-10-08T14:54:40;24.30;52.20
47825;DHT22;33589;48.242;14.676;2023-10-08T14:57:07;24.50;51.10
47825;DHT22;33589;48.242;14.676;2023-10-08T14:59:33;24.50;50.40
47825;DHT22;33589;48.242;14.676;2023-10-08T15:01:59;24.60;50.90
47825;DHT22;33589;48.242;14.676;2023-10-08T15:04:25;24.20;51.80
47825;DHT22;33589;48.242;14.676;2023-10-08T15:06:56;24.40;51.50
47825;DHT22;33589;48.242;14.676;2023-10-08T15:09:23;24.30;51.60
47825;DHT22;33589;48.242;14.676;2023-10-08T15:14:17;24.20;53.50
47825;DHT22;33589;48.242;14.676;2023-10-08T15:16:44;24.10;52.80
47825;DHT22;33589;48.242;14.676;2023-10-08T15:19:12;24.20;56.40
47825;DHT22;33589;48.242;14.676;2023-10-08T15:21:41;24.30;54.10
47825;DHT22;33589;48.242;14.676;2023-10-08T15:24:07;24.40;55.50
47825;DHT22;33589;48.242;14.676;2023-10-08T15:26:38;24.30;54.00
47825;DHT22;33589;48.242;14.676;2023-10-08T15:29:05;24.20;54.30
47825;DHT22;33589;48.242;14.676;2023-10-08T15:31:30;24.30;54.80
47825;DHT22;33589;48.242;14.676;2023-10-08T15:33:56;24.10;55.00
47825;DHT22;33589;48.242;14.676;2023-10-08T15:36:22;24.10;56.10
47825;DHT22;33589;48.242;14.676;2023-10-08T15:38:48;24.10;56.60
47825;DHT22;33589;48.242;14.676;2023-10-08T15:41:14;24.10;56.50
47825;DHT22;33589;48.242;14.676;2023-10-08T15:43:41;24.00;59.40
47825;DHT22;33589;48.242;14.676;2023-10-08T15:46:10;24.10;60.10
47825;DHT22;33589;48.242;14.676;2023-10-08T15:48:35;24.10;56.50
47825;DHT22;33589;48.242;14.676;2023-10-08T15:51:03;24.20;60.10
47825;DHT22;33589;48.242;14.676;2023-10-08T15:53:28;24.00;60.10
47825;DHT22;33589;48.242;14.676;2023-10-08T15:55:56;23.90;61.20
47825;DHT22;33589;48.242;14.676;2023-10-08T15:58:22;23.90;61.80
47825;DHT22;33589;48.242;14.676;2023-10-08T16:00:48;23.70;62.80
47825;DHT22;33589;48.242;14.676;2023-10-08T16:03:13;23.70;62.70
47825;DHT22;33589;48.242;14.676;2023-10-08T16:05:43;23.70;62.80
47825;DHT22;33589;48.242;14.676;2023-10-08T16:08:08;23.60;62.30
47825;DHT22;33589;48.242;14.676;2023-10-08T16:10:34;23.50;64.00
47825;DHT22;33589;48.242;14.676;2023-10-08T16:13:00;23.30;63.60
47825;DHT22;33589;48.242;14.676;2023-10-08T16:15:26;23.10;64.50
47825;DHT22;33589;48.242;14.676;2023-10-08T16:17:52;22.90;64.50
47825;DHT22;33589;48.242;14.676;2023-10-08T16:20:18;22.90;65.50
47825;DHT22;33589;48.242;14.676;2023-10-08T16:22:44;22.80;65.60
47825;DHT22;33589;48.242;14.676;2023-10-08T16:25:12;22.40;65.80
47825;DHT22;33589;48.242;14.676;2023-10-08T16:27:45;22.10;68.00
47825;DHT22;33589;48.242;14.676;2023-10-08T16:30:21;22.10;68.30
47825;DHT22;33589;48.242;14.676;2023-10-08T16:32:53;22.20;68.20
47825;DHT22;33589;48.242;14.676;2023-10-08T16:35:20;21.90;68.70
47825;DHT22;33589;48.242;14.676;2023-10-08T16:37:46;21.80;69.40
47825;DHT22;33589;48.242;14.676;2023-10-08T16:40:12;21.60;70.10
47825;DHT22;33589;48.242;14.676;2023-10-08T16:42:39;21.40;71.70
47825;DHT22;33589;48.242;14.676;2023-10-08T16:45:05;21.30;72.00
47825;DHT22;33589;48.242;14.676;2023-10-08T16:47:32;21.30;72.50
47825;DHT22;33589;48.242;14.676;2023-10-08T16:52:25;21.10;99.10
47825;DHT22;33589;48.242;14.676;2023-10-08T17:02:38;20.60;94.20
47825;DHT22;33589;48.242;14.676;2023-10-08T17:05:04;20.40;77.20
47825;DHT22;33589;48.242;14.676;2023-10-08T17:07:30;20.20;77.80
47825;DHT22;33589;48.242;14.676;2023-10-08T17:09:55;20.30;78.00
47825;DHT22;33589;48.242;14.676;2023-10-08T17:12:21;20.10;79.10
47825;DHT22;33589;48.242;14.676;2023-10-08T17:14:47;20.00;79.60
47825;DHT22;33589;48.242;14.676;2023-10-08T17:17:12;19.90;80.10
47825;DHT22;33589;48.242;14.676;2023-10-08T17:19:39;19.70;80.50
47825;DHT22;33589;48.242;14.676;2023-10-08T17:22:04;19.70;81.70
47825;DHT22;33589;48.242;14.676;2023-10-08T17:24:30;19.40;82.40
47825;DHT22;33589;48.242;14.676;2023-10-08T17:26:56;19.40;83.70
47825;DHT22;33589;48.242;14.676;2023-10-08T17:29:21;19.30;83.40
47825;DHT22;33589;48.242;14.676;2023-10-08T17:31:47;19.60;82.20
47825;DHT22;33589;48.242;14.676;2023-10-08T17:34:14;19.60;82.10
47825;DHT22;33589;48.242;14.676;2023-10-08T17:36:40;19.40;83.10